sensor_id;sensor_type;location;lat;lon;timestamp;P1;durP1;ratioP1;P2;durP2;ratioP2
9117;SDS011;4594;50.994;7.126;2023-02-03T00:01:32;8.80;;;4.27;;
9117;SDS011;4594;50.994;7.126;2023-02-03T00:03:57;7.20;;;4.53;;
9117;SDS011;4594;50.994;7.126;2023-02-03T00:06:23;5.80;;;4.43;;
9117;SDS011;4594;50.994;7.126;2023-02-03T00:08:51;5.17;;;4.30;;
9117;SDS011;4594;50.994;7.126;2023-02-03T00:11:20;5.47;;;4.37;;
9117;SDS011;4594;50.994;7.126;2023-02-03T00:13:46;5.50;;;3.97;;
9117;SDS011;4594;50.994;7.126;2023-02-03T00:16:11;4.60;;;4.20;;
9117;SDS011;4594;50.994;7.126;2023-02-03T00:18:37;9.23;;;4.53;;
9117;SDS011;4594;50.994;7.126;2023-02-03T00:21:03;7.60;;;4.90;;
9117;SDS011;4594;50.994;7.126;2023-02-03T00:23:30;5.67;;;4.07;;
9117;SDS011;4594;50.994;7.126;2023-02-03T00:25:57;5.00;;;4.30;;
9117;SDS011;4594;50.994;7.126;2023-02-03T00:28:31;4.40;;;4.00;;
9117;SDS011;4594;50.994;7.126;2023-02-03T00:30:57;7.13;;;4.40;;
9117;SDS011;4594;50.994;7.126;2023-02-03T00:33:22;6.97;;;4.30;;
9117;SDS011;4594;50.994;7.126;2023-02-03T00:35:48;5.87;;;4.30;;
9117;SDS011;4594;50.994;7.126;2023-02-03T00:38:14;5.73;;;4.07;;
9117;SDS011;4594;50.994;7.126;2023-02-03T00:40:39;4.80;;;4.17;;
9117;SDS011;4594;50.994;7.126;2023-02-03T00:43:05;8.90;;;4.30;;
9117;SDS011;4594;50.994;7.126;2023-02-03T00:45:31;6.60;;;4.00;;
9117;SDS011;4594;50.994;7.126;2023-02-03T00:47:56;6.43;;;3.80;;
9117;SDS011;4594;50.994;7.126;2023-02-03T00:50:22;4.87;;;3.80;;
9117;SDS011;4594;50.994;7.126;2023-02-03T00:52:48;7.17;;;4.50;;
9117;SDS011;4594;50.994;7.126;2023-02-03T00:55:13;5.40;;;3.97;;
9117;SDS011;4594;50.994;7.126;2023-02-03T00:57:39;4.50;;;3.43;;
9117;SDS011;4594;50.994;7.126;2023-02-03T01:00:05;7.10;;;4.40;;
9117;SDS011;4594;50.994;7.126;2023-02-03T01:02:31;5.90;;;3.80;;
9117;SDS011;4594;50.994;7.126;2023-02-03T01:04:57;5.10;;;3.77;;
9117;SDS011;4594;50.994;7.126;2023-02-03T01:07:23;6.07;;;4.13;;
9117;SDS011;4594;50.994;7.126;2023-02-03T01:09:48;4.10;;;3.50;;
9117;SDS011;4594;50.994;7.126;2023-02-03T01:12:14;4.90;;;3.20;;
9117;SDS011;4594;50.994;7.126;2023-02-03T01:14:40;4.50;;;3.23;;
9117;SDS011;4594;50.994;7.126;2023-02-03T01:17:05;5.33;;;3.30;;
9117;SDS011;4594;50.994;7.126;2023-02-03T01:19:31;6.20;;;3.70;;
9117;SDS011;4594;50.994;7.126;2023-02-03T01:21:57;6.33;;;3.23;;
9117;SDS011;4594;50.994;7.126;2023-02-03T01:24:22;5.53;;;3.60;;
9117;SDS011;4594;50.994;7.126;2023-02-03T01:26:48;6.87;;;3.43;;
9117;SDS011;4594;50.994;7.126;2023-02-03T01:29:13;4.40;;;3.27;;
9117;SDS011;4594;50.994;7.126;2023-02-03T01:31:39;8.90;;;3.23;;
9117;SDS011;4594;50.994;7.126;2023-02-03T01:34:10;5.97;;;2.80;;
9117;SDS011;4594;50.994;7.126;2023-02-03T01:36:38;7.63;;;3.50;;
9117;SDS011;4594;50.994;7.126;2023-02-03T01:39:04;6.00;;;3.10;;
9117;SDS011;4594;50.994;7.126;2023-02-03T01:41:34;4.30;;;3.20;;
9117;SDS011;4594;50.994;7.126;2023-02-03T01:44:33;6.60;;;3.10;;
9117;SDS011;4594;50.994;7.126;2023-02-03T01:49:51;4.10;;;2.90;;
9117;SDS011;4594;50.994;7.126;2023-02-03T01:52:23;10.57;;;3.30;;
9117;SDS011;4594;50.994;7.126;2023-02-03T01:54:51;3.17;;;2.87;;
9117;SDS011;4594;50.994;7.126;2023-02-03T01:57:21;6.93;;;3.10;;
9117;SDS011;4594;50.994;7.126;2023-02-03T01:59:53;5.67;;;3.57;;
9117;SDS011;4594;50.994;7.126;2023-02-03T02:02:23;4.70;;;3.00;;
9117;SDS011;4594;50.994;7.126;2023-02-03T02:07:40;5.63;;;3.20;;
9117;SDS011;4594;50.994;7.126;2023-02-03T02:10:07;3.67;;;3.00;;
9117;SDS011;4594;50.994;7.126;2023-02-03T02:12:33;3.10;;;2.87;;
9117;SDS011;4594;50.994;7.126;2023-02-03T02:14:59;5.97;;;3.13;;
9117;SDS011;4594;50.994;7.126;2023-02-03T02:17:43;3.00;;;2.80;;
9117;SDS011;4594;50.994;7.126;2023-02-03T02:20:37;5.83;;;3.00;;
9117;SDS011;4594;50.994;7.126;2023-02-03T02:32:47;3.20;;;2.90;;
9117;SDS011;4594;50.994;7.126;2023-02-03T02:35:50;5.60;;;2.70;;
9117;SDS011;4594;50.994;7.126;2023-02-03T02:38:53;4.63;;;2.87;;
9117;SDS011;4594;50.994;7.126;2023-02-03T02:41:42;5.83;;;3.13;;
9117;SDS011;4594;50.994;7.126;2023-02-03T02:44:32;3.70;;;2.77;;
9117;SDS011;4594;50.994;7.126;2023-02-03T02:47:05;5.77;;;3.07;;
9117;SDS011;4594;50.994;7.126;2023-02-03T02:49:52;4.40;;;2.40;;
9117;SDS011;4594;50.994;7.126;2023-02-03T02:52:36;2.87;;;2.60;;
9117;SDS011;4594;50.994;7.126;2023-02-03T02:55:10;2.80;;;2.60;;
9117;SDS011;4594;50.994;7.126;2023-02-03T02:57:42;3.80;;;2.30;;
9117;SDS011;4594;50.994;7.126;2023-02-03T03:00:11;4.60;;;2.67;;
9117;SDS011;4594;50.994;7.126;2023-02-03T03:02:37;4.67;;;2.50;;
9117;SDS011;4594;50.994;7.126;2023-02-03T03:05:03;2.67;;;2.47;;
9117;SDS011;4594;50.994;7.126;2023-02-03T03:07:34;2.67;;;2.50;;
9117;SDS011;4594;50.994;7.126;2023-02-03T03:10:10;6.50;;;2.60;;
9117;SDS011;4594;50.994;7.126;2023-02-03T03:12:46;14.90;;;3.00;;
9117;SDS011;4594;50.994;7.126;2023-02-03T03:15:26;6.03;;;3.00;;
9117;SDS011;4594;50.994;7.126;2023-02-03T03:18:00;4.40;;;2.80;;
9117;SDS011;4594;50.994;7.126;2023-02-03T03:20:38;5.00;;;3.20;;
9117;SDS011;4594;50.994;7.126;2023-02-03T03:23:10;4.97;;;2.87;;
9117;SDS011;4594;50.994;7.126;2023-02-03T03:25:48;8.20;;;2.63;;
9117;SDS011;4594;50.994;7.126;2023-02-03T03:28:24;5.80;;;2.77;;
9117;SDS011;4594;50.994;7.126;2023-02-03T03:31:04;4.47;;;3.00;;
9117;SDS011;4594;50.994;7.126;2023-02-03T03:33:30;5.63;;;2.83;;
9117;SDS011;4594;50.994;7.126;2023-02-03T03:36:00;5.63;;;3.00;;
9117;SDS011;4594;50.994;7.126;2023-02-03T03:38:40;3.30;;;2.67;;
9117;SDS011;4594;50.994;7.126;2023-02-03T03:41:15;3.70;;;2.47;;
9117;SDS011;4594;50.994;7.126;2023-02-03T03:43:51;6.77;;;3.13;;
9117;SDS011;4594;50.994;7.126;2023-02-03T03:46:24;3.80;;;2.90;;
9117;SDS011;4594;50.994;7.126;2023-02-03T03:48:59;5.10;;;3.00;;
9117;SDS011;4594;50.994;7.126;2023-02-03T03:51:31;3.83;;;2.97;;
9117;SDS011;4594;50.994;7.126;2023-02-03T03:54:06;5.17;;;3.10;;
9117;SDS011;4594;50.994;7.126;2023-02-03T03:56:37;4.40;;;2.60;;
9117;SDS011;4594;50.994;7.126;2023-02-03T03:59:15;4.07;;;3.17;;
9117;SDS011;4594;50.994;7.126;2023-02-03T04:01:47;4.23;;;3.07;;
9117;SDS011;4594;50.994;7.126;2023-02-03T04:04:15;3.40;;;2.93;;
9117;SDS011;4594;50.994;7.126;2023-02-03T04:06:42;5.30;;;3.20;;
9117;SDS011;4594;50.994;7.126;2023-02-03T04:09:08;3.43;;;2.40;;
9117;SDS011;4594;50.994;7.126;2023-02-03T04:11:34;6.37;;;3.37;;
9117;SDS011;4594;50.994;7.126;2023-02-03T04:14:29;4.17;;;2.90;;
9117;SDS011;4594;50.994;7.126;2023-02-03T04:17:01;3.30;;;3.00;;
9117;SDS011;4594;50.994;7.126;2023-02-03T04:19:27;4.67;;;3.20;;
9117;SDS011;4594;50.994;7.126;2023-02-03T04:21:53;4.53;;;2.97;;
9117;SDS011;4594;50.994;7.126;2023-02-03T04:24:19;5.33;;;2.63;;
9117;SDS011;4594;50.994;7.126;2023-02-03T04:26:45;4.90;;;2.77;;
9117;SDS011;4594;50.994;7.126;2023-02-03T04:29:10;8.83;;;2.80;;
9117;SDS011;4594;50.994;7.126;2023-02-03T04:31:36;4.57;;;2.47;;
9117;SDS011;4594;50.994;7.126;2023-02-03T04:34:02;5.07;;;2.83;;
9117;SDS011;4594;50.994;7.126;2023-02-03T04:36:29;2.93;;;2.73;;
9117;SDS011;4594;50.994;7.126;2023-02-03T04:38:55;4.03;;;2.70;;
9117;SDS011;4594;50.994;7.126;2023-02-03T04:41:20;5.17;;;3.20;;
9117;SDS011;4594;50.994;7.126;2023-02-03T04:43:47;3.03;;;2.63;;
9117;SDS011;4594;50.994;7.126;2023-02-03T04:46:12;5.83;;;2.63;;
9117;SDS011;4594;50.994;7.126;2023-02-03T04:48:38;6.47;;;2.80;;
9117;SDS011;4594;50.994;7.126;2023-02-03T04:51:04;6.27;;;2.93;;
9117;SDS011;4594;50.994;7.126;2023-02-03T04:53:32;6.13;;;2.53;;
9117;SDS011;4594;50.994;7.126;2023-02-03T04:55:58;3.07;;;2.47;;
9117;SDS011;4594;50.994;7.126;2023-02-03T04:58:24;2.57;;;2.37;;
9117;SDS011;4594;50.994;7.126;2023-02-03T05:00:51;6.07;;;2.40;;
9117;SDS011;4594;50.994;7.126;2023-02-03T05:03:17;2.40;;;2.20;;
9117;SDS011;4594;50.994;7.126;2023-02-03T05:05:43;5.80;;;2.87;;
9117;SDS011;4594;50.994;7.126;2023-02-03T05:08:09;5.93;;;2.80;;
9117;SDS011;4594;50.994;7.126;2023-02-03T05:10:35;4.00;;;2.63;;
9117;SDS011;4594;50.994;7.126;2023-02-03T05:13:01;2.33;;;2.13;;
9117;SDS011;4594;50.994;7.126;2023-02-03T05:15:27;2.50;;;2.30;;
9117;SDS011;4594;50.994;7.126;2023-02-03T05:17:53;3.10;;;2.73;;
9117;SDS011;4594;50.994;7.126;2023-02-03T05:20:19;6.60;;;2.73;;
9117;SDS011;4594;50.994;7.126;2023-02-03T05:22:46;4.97;;;2.77;;
9117;SDS011;4594;50.994;7.126;2023-02-03T05:25:11;6.03;;;2.87;;
9117;SDS011;4594;50.994;7.126;2023-02-03T05:27:37;4.27;;;2.87;;
9117;SDS011;4594;50.994;7.126;2023-02-03T05:30:05;3.60;;;2.50;;
9117;SDS011;4594;50.994;7.126;2023-02-03T05:32:33;4.57;;;2.73;;
9117;SDS011;4594;50.994;7.126;2023-02-03T05:34:58;3.33;;;2.30;;
9117;SDS011;4594;50.994;7.126;2023-02-03T05:37:24;4.50;;;2.63;;
9117;SDS011;4594;50.994;7.126;2023-02-03T05:39:50;2.60;;;2.40;;
9117;SDS011;4594;50.994;7.126;2023-02-03T05:42:15;2.80;;;2.60;;
9117;SDS011;4594;50.994;7.126;2023-02-03T05:44:41;3.23;;;2.50;;
9117;SDS011;4594;50.994;7.126;2023-02-03T05:47:07;2.53;;;2.20;;
9117;SDS011;4594;50.994;7.126;2023-02-03T05:49:33;5.63;;;2.77;;
9117;SDS011;4594;50.994;7.126;2023-02-03T05:51:58;6.33;;;2.97;;
9117;SDS011;4594;50.994;7.126;2023-02-03T05:54:24;5.27;;;2.30;;
9117;SDS011;4594;50.994;7.126;2023-02-03T05:56:50;4.13;;;2.30;;
9117;SDS011;4594;50.994;7.126;2023-02-03T05:59:16;2.50;;;2.30;;
9117;SDS011;4594;50.994;7.126;2023-02-03T06:01:42;3.27;;;2.30;;
9117;SDS011;4594;50.994;7.126;2023-02-03T06:04:08;4.17;;;2.07;;
9117;SDS011;4594;50.994;7.126;2023-02-03T06:06:34;3.30;;;2.20;;
9117;SDS011;4594;50.994;7.126;2023-02-03T06:09:01;2.60;;;2.40;;
9117;SDS011;4594;50.994;7.126;2023-02-03T06:11:30;3.27;;;2.13;;
9117;SDS011;4594;50.994;7.126;2023-02-03T06:13:57;2.40;;;2.20;;
9117;SDS011;4594;50.994;7.126;2023-02-03T06:16:24;3.97;;;2.37;;
9117;SDS011;4594;50.994;7.126;2023-02-03T06:18:52;2.93;;;2.17;;
9117;SDS011;4594;50.994;7.126;2023-02-03T06:21:20;3.63;;;2.00;;
9117;SDS011;4594;50.994;7.126;2023-02-03T06:23:46;2.30;;;1.93;;
9117;SDS011;4594;50.994;7.126;2023-02-03T06:26:12;2.10;;;1.73;;
9117;SDS011;4594;50.994;7.126;2023-02-03T06:28:38;4.03;;;2.00;;
9117;SDS011;4594;50.994;7.126;2023-02-03T06:31:04;4.90;;;2.00;;
9117;SDS011;4594;50.994;7.126;2023-02-03T06:33:31;3.00;;;1.97;;
9117;SDS011;4594;50.994;7.126;2023-02-03T06:35:57;7.47;;;2.10;;
9117;SDS011;4594;50.994;7.126;2023-02-03T06:38:23;3.30;;;2.00;;
9117;SDS011;4594;50.994;7.126;2023-02-03T06:40:49;2.10;;;1.80;;
9117;SDS011;4594;50.994;7.126;2023-02-03T06:43:15;2.43;;;1.93;;
9117;SDS011;4594;50.994;7.126;2023-02-03T06:45:43;3.00;;;1.73;;
9117;SDS011;4594;50.994;7.126;2023-02-03T06:48:11;6.03;;;2.10;;
9117;SDS011;4594;50.994;7.126;2023-02-03T06:50:38;4.47;;;2.07;;
9117;SDS011;4594;50.994;7.126;2023-02-03T06:53:04;1.83;;;1.60;;
9117;SDS011;4594;50.994;7.126;2023-02-03T06:55:29;2.27;;;1.60;;
9117;SDS011;4594;50.994;7.126;2023-02-03T06:57:55;2.93;;;1.77;;
9117;SDS011;4594;50.994;7.126;2023-02-03T07:00:20;3.07;;;2.27;;
9117;SDS011;4594;50.994;7.126;2023-02-03T07:02:51;4.87;;;2.00;;
9117;SDS011;4594;50.994;7.126;2023-02-03T07:05:19;4.47;;;2.10;;
9117;SDS011;4594;50.994;7.126;2023-02-03T07:07:46;1.80;;;1.70;;
9117;SDS011;4594;50.994;7.126;2023-02-03T07:10:11;3.90;;;2.20;;
9117;SDS011;4594;50.994;7.126;2023-02-03T07:12:37;5.13;;;2.10;;
9117;SDS011;4594;50.994;7.126;2023-02-03T07:15:03;2.67;;;1.67;;
9117;SDS011;4594;50.994;7.126;2023-02-03T07:17:29;2.17;;;1.90;;
9117;SDS011;4594;50.994;7.126;2023-02-03T07:19:56;4.77;;;2.10;;
9117;SDS011;4594;50.994;7.126;2023-02-03T07:22:21;5.73;;;2.00;;
9117;SDS011;4594;50.994;7.126;2023-02-03T07:24:47;4.97;;;1.97;;
9117;SDS011;4594;50.994;7.126;2023-02-03T07:27:12;2.80;;;2.00;;
9117;SDS011;4594;50.994;7.126;2023-02-03T07:29:38;3.73;;;1.70;;
9117;SDS011;4594;50.994;7.126;2023-02-03T07:32:04;2.63;;;1.73;;
9117;SDS011;4594;50.994;7.126;2023-02-03T07:34:29;2.07;;;1.60;;
9117;SDS011;4594;50.994;7.126;2023-02-03T07:36:56;3.43;;;1.73;;
9117;SDS011;4594;50.994;7.126;2023-02-03T07:39:21;5.13;;;2.17;;
9117;SDS011;4594;50.994;7.126;2023-02-03T07:41:47;3.27;;;2.30;;
9117;SDS011;4594;50.994;7.126;2023-02-03T07:44:13;4.03;;;2.20;;
9117;SDS011;4594;50.994;7.126;2023-02-03T07:46:38;3.90;;;2.23;;
9117;SDS011;4594;50.994;7.126;2023-02-03T07:49:09;3.07;;;1.77;;
9117;SDS011;4594;50.994;7.126;2023-02-03T07:51:38;3.13;;;1.87;;
9117;SDS011;4594;50.994;7.126;2023-02-03T07:54:04;3.00;;;2.00;;
9117;SDS011;4594;50.994;7.126;2023-02-03T07:56:30;2.00;;;1.80;;
9117;SDS011;4594;50.994;7.126;2023-02-03T07:58:57;4.57;;;2.13;;
9117;SDS011;4594;50.994;7.126;2023-02-03T08:01:23;3.93;;;2.00;;
9117;SDS011;4594;50.994;7.126;2023-02-03T08:03:50;1.93;;;1.83;;
9117;SDS011;4594;50.994;7.126;2023-02-03T08:06:16;4.57;;;2.20;;
9117;SDS011;4594;50.994;7.126;2023-02-03T08:08:41;4.50;;;2.20;;
9117;SDS011;4594;50.994;7.126;2023-02-03T08:11:08;3.93;;;2.10;;
9117;SDS011;4594;50.994;7.126;2023-02-03T08:13:35;3.37;;;1.80;;
9117;SDS011;4594;50.994;7.126;2023-02-03T08:16:00;2.83;;;1.90;;
9117;SDS011;4594;50.994;7.126;2023-02-03T08:18:26;3.40;;;2.00;;
9117;SDS011;4594;50.994;7.126;2023-02-03T08:20:52;3.33;;;1.80;;
9117;SDS011;4594;50.994;7.126;2023-02-03T08:23:18;2.30;;;1.93;;
9117;SDS011;4594;50.994;7.126;2023-02-03T08:25:43;2.03;;;1.83;;
9117;SDS011;4594;50.994;7.126;2023-02-03T08:28:09;2.03;;;1.90;;
9117;SDS011;4594;50.994;7.126;2023-02-03T08:30:35;1.80;;;1.70;;
9117;SDS011;4594;50.994;7.126;2023-02-03T08:33:00;1.90;;;1.77;;
9117;SDS011;4594;50.994;7.126;2023-02-03T08:35:26;3.30;;;2.17;;
9117;SDS011;4594;50.994;7.126;2023-02-03T08:37:52;3.57;;;1.93;;
9117;SDS011;4594;50.994;7.126;2023-02-03T08:40:18;4.70;;;2.43;;
9117;SDS011;4594;50.994;7.126;2023-02-03T08:42:44;4.77;;;2.40;;
9117;SDS011;4594;50.994;7.126;2023-02-03T08:45:09;3.17;;;2.10;;
9117;SDS011;4594;50.994;7.126;2023-02-03T08:47:35;4.93;;;2.20;;
9117;SDS011;4594;50.994;7.126;2023-02-03T08:50:03;3.53;;;2.10;;
9117;SDS011;4594;50.994;7.126;2023-02-03T08:52:30;2.80;;;2.43;;
9117;SDS011;4594;50.994;7.126;2023-02-03T08:54:56;4.00;;;2.00;;
9117;SDS011;4594;50.994;7.126;2023-02-03T08:57:21;5.23;;;2.17;;
9117;SDS011;4594;50.994;7.126;2023-02-03T08:59:47;2.40;;;2.20;;
9117;SDS011;4594;50.994;7.126;2023-02-03T09:02:14;2.77;;;1.80;;
9117;SDS011;4594;50.994;7.126;2023-02-03T09:04:43;6.33;;;1.97;;
9117;SDS011;4594;50.994;7.126;2023-02-03T09:07:11;3.27;;;2.30;;
9117;SDS011;4594;50.994;7.126;2023-02-03T09:09:37;3.33;;;2.17;;
9117;SDS011;4594;50.994;7.126;2023-02-03T09:12:07;6.00;;;2.20;;
9117;SDS011;4594;50.994;7.126;2023-02-03T09:14:34;5.03;;;2.47;;
9117;SDS011;4594;50.994;7.126;2023-02-03T09:17:00;4.40;;;2.10;;
9117;SDS011;4594;50.994;7.126;2023-02-03T09:19:28;6.97;;;2.40;;
9117;SDS011;4594;50.994;7.126;2023-02-03T09:21:55;4.00;;;2.20;;
9117;SDS011;4594;50.994;7.126;2023-02-03T09:24:24;2.40;;;2.27;;
9117;SDS011;4594;50.994;7.126;2023-02-03T09:26:49;3.63;;;2.67;;
9117;SDS011;4594;50.994;7.126;2023-02-03T09:29:15;4.03;;;2.30;;
9117;SDS011;4594;50.994;7.126;2023-02-03T09:31:41;4.00;;;2.10;;
9117;SDS011;4594;50.994;7.126;2023-02-03T09:34:08;2.60;;;1.97;;
9117;SDS011;4594;50.994;7.126;2023-02-03T09:36:34;2.60;;;2.30;;
9117;SDS011;4594;50.994;7.126;2023-02-03T09:39:00;2.63;;;2.40;;
9117;SDS011;4594;50.994;7.126;2023-02-03T09:41:46;5.37;;;2.20;;
9117;SDS011;4594;50.994;7.126;2023-02-03T09:47:16;10.20;;;2.40;;
9117;SDS011;4594;50.994;7.126;2023-02-03T09:49:51;3.03;;;2.17;;
9117;SDS011;4594;50.994;7.126;2023-02-03T09:52:22;4.60;;;2.13;;
9117;SDS011;4594;50.994;7.126;2023-02-03T09:55:02;13.60;;;2.33;;
9117;SDS011;4594;50.994;7.126;2023-02-03T09:58:02;4.40;;;1.90;;
9117;SDS011;4594;50.994;7.126;2023-02-03T10:00:57;4.73;;;2.53;;
9117;SDS011;4594;50.994;7.126;2023-02-03T10:03:29;2.77;;;2.37;;
9117;SDS011;4594;50.994;7.126;2023-02-03T10:12:09;2.63;;;2.53;;
9117;SDS011;4594;50.994;7.126;2023-02-03T10:18:08;3.17;;;2.60;;
9117;SDS011;4594;50.994;7.126;2023-02-03T10:20:47;4.07;;;2.40;;
9117;SDS011;4594;50.994;7.126;2023-02-03T10:23:19;4.00;;;2.47;;
9117;SDS011;4594;50.994;7.126;2023-02-03T10:25:54;4.23;;;2.70;;
9117;SDS011;4594;50.994;7.126;2023-02-03T10:28:24;4.70;;;2.60;;
9117;SDS011;4594;50.994;7.126;2023-02-03T10:30:55;5.77;;;3.10;;
9117;SDS011;4594;50.994;7.126;2023-02-03T10:33:26;5.63;;;2.90;;
9117;SDS011;4594;50.994;7.126;2023-02-03T10:36:18;3.57;;;3.10;;
9117;SDS011;4594;50.994;7.126;2023-02-03T10:41:19;3.10;;;2.80;;
9117;SDS011;4594;50.994;7.126;2023-02-03T10:43:48;4.03;;;2.90;;
9117;SDS011;4594;50.994;7.126;2023-02-03T10:46:18;3.30;;;3.10;;
9117;SDS011;4594;50.994;7.126;2023-02-03T10:49:06;3.10;;;2.77;;
9117;SDS011;4594;50.994;7.126;2023-02-03T10:54:28;3.13;;;2.77;;
9117;SDS011;4594;50.994;7.126;2023-02-03T10:57:11;2.93;;;2.73;;
9117;SDS011;4594;50.994;7.126;2023-02-03T10:59:40;3.37;;;3.03;;
9117;SDS011;4594;50.994;7.126;2023-02-03T11:02:21;3.17;;;2.87;;
9117;SDS011;4594;50.994;7.126;2023-02-03T11:07:46;3.13;;;2.90;;
9117;SDS011;4594;50.994;7.126;2023-02-03T11:18:35;5.77;;;3.40;;
9117;SDS011;4594;50.994;7.126;2023-02-03T11:21:08;4.20;;;3.73;;
9117;SDS011;4594;50.994;7.126;2023-02-03T11:26:20;4.17;;;3.77;;
9117;SDS011;4594;50.994;7.126;2023-02-03T11:28:52;4.33;;;3.93;;
9117;SDS011;4594;50.994;7.126;2023-02-03T11:31:26;4.53;;;3.63;;
9117;SDS011;4594;50.994;7.126;2023-02-03T11:33:57;6.50;;;4.23;;
9117;SDS011;4594;50.994;7.126;2023-02-03T11:36:41;5.27;;;4.80;;
9117;SDS011;4594;50.994;7.126;2023-02-03T11:39:13;5.13;;;3.83;;
9117;SDS011;4594;50.994;7.126;2023-02-03T11:41:44;5.17;;;4.37;;
9117;SDS011;4594;50.994;7.126;2023-02-03T11:44:16;5.20;;;4.70;;
9117;SDS011;4594;50.994;7.126;2023-02-03T11:46:47;4.63;;;4.23;;
9117;SDS011;4594;50.994;7.126;2023-02-03T11:55:19;5.50;;;4.00;;
9117;SDS011;4594;50.994;7.126;2023-02-03T11:58:05;7.63;;;4.47;;
9117;SDS011;4594;50.994;7.126;2023-02-03T12:01:09;7.03;;;4.73;;
9117;SDS011;4594;50.994;7.126;2023-02-03T12:07:19;4.47;;;4.17;;
9117;SDS011;4594;50.994;7.126;2023-02-03T12:21:53;4.00;;;3.80;;
9117;SDS011;4594;50.994;7.126;2023-02-03T12:27:52;5.67;;;4.33;;
9117;SDS011;4594;50.994;7.126;2023-02-03T12:30:46;7.53;;;4.77;;
9117;SDS011;4594;50.994;7.126;2023-02-03T12:33:19;5.60;;;5.07;;
9117;SDS011;4594;50.994;7.126;2023-02-03T12:36:04;5.70;;;5.07;;
9117;SDS011;4594;50.994;7.126;2023-02-03T12:41:20;6.67;;;5.03;;
9117;SDS011;4594;50.994;7.126;2023-02-03T12:43:53;11.80;;;5.57;;
9117;SDS011;4594;50.994;7.126;2023-02-03T12:46:34;5.23;;;4.90;;
9117;SDS011;4594;50.994;7.126;2023-02-03T12:49:15;5.03;;;4.63;;
9117;SDS011;4594;50.994;7.126;2023-02-03T13:03:02;5.07;;;4.53;;
9117;SDS011;4594;50.994;7.126;2023-02-03T13:08:24;7.93;;;5.20;;
9117;SDS011;4594;50.994;7.126;2023-02-03T13:13:51;8.53;;;5.20;;
9117;SDS011;4594;50.994;7.126;2023-02-03T13:16:32;5.77;;;4.93;;
9117;SDS011;4594;50.994;7.126;2023-02-03T13:19:05;9.07;;;5.00;;
9117;SDS011;4594;50.994;7.126;2023-02-03T13:21:41;5.93;;;5.00;;
9117;SDS011;4594;50.994;7.126;2023-02-03T13:24:08;8.10;;;5.00;;
9117;SDS011;4594;50.994;7.126;2023-02-03T13:26:45;5.53;;;5.07;;
9117;SDS011;4594;50.994;7.126;2023-02-03T13:29:52;9.23;;;4.87;;
9117;SDS011;4594;50.994;7.126;2023-02-03T13:32:50;5.73;;;4.77;;
9117;SDS011;4594;50.994;7.126;2023-02-03T13:38:55;6.17;;;4.97;;
9117;SDS011;4594;50.994;7.126;2023-02-03T13:41:44;5.43;;;4.73;;
9117;SDS011;4594;50.994;7.126;2023-02-03T13:44:23;5.87;;;5.23;;
9117;SDS011;4594;50.994;7.126;2023-02-03T13:46:53;5.00;;;4.57;;
9117;SDS011;4594;50.994;7.126;2023-02-03T13:49:33;6.47;;;5.17;;
9117;SDS011;4594;50.994;7.126;2023-02-03T13:52:01;9.73;;;5.17;;
9117;SDS011;4594;50.994;7.126;2023-02-03T13:54:30;7.90;;;4.90;;
9117;SDS011;4594;50.994;7.126;2023-02-03T13:56:59;8.43;;;4.87;;
9117;SDS011;4594;50.994;7.126;2023-02-03T13:59:47;7.53;;;4.47;;
9117;SDS011;4594;50.994;7.126;2023-02-03T14:04:54;7.40;;;4.80;;
9117;SDS011;4594;50.994;7.126;2023-02-03T14:07:37;5.23;;;4.77;;
9117;SDS011;4594;50.994;7.126;2023-02-03T14:10:04;4.77;;;4.23;;
9117;SDS011;4594;50.994;7.126;2023-02-03T14:25:40;3.97;;;3.33;;
9117;SDS011;4594;50.994;7.126;2023-02-03T14:28:13;5.53;;;3.40;;
9117;SDS011;4594;50.994;7.126;2023-02-03T14:30:59;4.50;;;4.10;;
9117;SDS011;4594;50.994;7.126;2023-02-03T14:36:34;3.70;;;3.40;;
9117;SDS011;4594;50.994;7.126;2023-02-03T14:41:55;3.40;;;3.20;;
9117;SDS011;4594;50.994;7.126;2023-02-03T14:45:34;4.13;;;2.97;;
9117;SDS011;4594;50.994;7.126;2023-02-03T14:52:13;6.10;;;3.23;;
9117;SDS011;4594;50.994;7.126;2023-02-03T14:57:47;3.10;;;2.80;;
9117;SDS011;4594;50.994;7.126;2023-02-03T15:05:38;3.57;;;2.57;;
9117;SDS011;4594;50.994;7.126;2023-02-03T15:11:23;5.40;;;3.20;;
9117;SDS011;4594;50.994;7.126;2023-02-03T15:17:01;10.97;;;2.77;;
9117;SDS011;4594;50.994;7.126;2023-02-03T15:19:40;3.33;;;2.63;;
9117;SDS011;4594;50.994;7.126;2023-02-03T15:22:23;3.00;;;2.53;;
9117;SDS011;4594;50.994;7.126;2023-02-03T15:24:55;2.87;;;2.60;;
9117;SDS011;4594;50.994;7.126;2023-02-03T15:27:29;5.33;;;3.03;;
9117;SDS011;4594;50.994;7.126;2023-02-03T15:29:56;6.70;;;3.30;;
9117;SDS011;4594;50.994;7.126;2023-02-03T15:32:33;3.10;;;2.80;;
9117;SDS011;4594;50.994;7.126;2023-02-03T15:35:06;5.00;;;3.03;;
9117;SDS011;4594;50.994;7.126;2023-02-03T15:40:19;4.17;;;3.07;;
9117;SDS011;4594;50.994;7.126;2023-02-03T15:42:52;2.87;;;2.70;;
9117;SDS011;4594;50.994;7.126;2023-02-03T15:45:32;10.37;;;3.87;;
9117;SDS011;4594;50.994;7.126;2023-02-03T15:48:05;3.97;;;2.60;;
9117;SDS011;4594;50.994;7.126;2023-02-03T15:53:26;6.90;;;3.13;;
9117;SDS011;4594;50.994;7.126;2023-02-03T15:56:00;4.83;;;2.60;;
9117;SDS011;4594;50.994;7.126;2023-02-03T15:58:31;5.17;;;2.63;;
9117;SDS011;4594;50.994;7.126;2023-02-03T16:01:09;3.87;;;2.60;;
9117;SDS011;4594;50.994;7.126;2023-02-03T16:06:31;10.40;;;3.13;;
9117;SDS011;4594;50.994;7.126;2023-02-03T16:09:24;5.40;;;2.63;;
9117;SDS011;4594;50.994;7.126;2023-02-03T16:14:43;3.80;;;3.23;;
9117;SDS011;4594;50.994;7.126;2023-02-03T16:22:38;7.83;;;3.03;;
9117;SDS011;4594;50.994;7.126;2023-02-03T16:27:56;7.03;;;2.83;;
9117;SDS011;4594;50.994;7.126;2023-02-03T16:31:01;14.17;;;3.97;;
9117;SDS011;4594;50.994;7.126;2023-02-03T16:33:59;6.53;;;3.10;;
9117;SDS011;4594;50.994;7.126;2023-02-03T16:36:45;10.13;;;3.50;;
9117;SDS011;4594;50.994;7.126;2023-02-03T16:39:29;7.07;;;3.10;;
9117;SDS011;4594;50.994;7.126;2023-02-03T16:42:15;6.23;;;2.70;;
9117;SDS011;4594;50.994;7.126;2023-02-03T16:45:03;10.03;;;3.10;;
9117;SDS011;4594;50.994;7.126;2023-02-03T16:47:59;7.37;;;2.77;;
9117;SDS011;4594;50.994;7.126;2023-02-03T16:50:44;10.30;;;2.80;;
9117;SDS011;4594;50.994;7.126;2023-02-03T16:53:36;10.63;;;3.30;;
9117;SDS011;4594;50.994;7.126;2023-02-03T16:56:02;6.97;;;2.93;;
9117;SDS011;4594;50.994;7.126;2023-02-03T16:58:29;8.33;;;4.00;;
9117;SDS011;4594;50.994;7.126;2023-02-03T17:00:57;8.80;;;3.27;;
9117;SDS011;4594;50.994;7.126;2023-02-03T17:03:26;3.57;;;2.97;;
9117;SDS011;4594;50.994;7.126;2023-02-03T17:05:54;6.23;;;2.97;;
9117;SDS011;4594;50.994;7.126;2023-02-03T17:08:22;11.27;;;3.13;;
9117;SDS011;4594;50.994;7.126;2023-02-03T17:10:50;8.60;;;3.30;;
9117;SDS011;4594;50.994;7.126;2023-02-03T17:13:17;10.67;;;4.17;;
9117;SDS011;4594;50.994;7.126;2023-02-03T17:15:47;10.03;;;3.83;;
9117;SDS011;4594;50.994;7.126;2023-02-03T17:18:19;9.80;;;3.90;;
9117;SDS011;4594;50.994;7.126;2023-02-03T17:20:45;8.70;;;4.50;;
9117;SDS011;4594;50.994;7.126;2023-02-03T17:23:12;13.70;;;4.43;;
9117;SDS011;4594;50.994;7.126;2023-02-03T17:25:45;7.43;;;3.57;;
9117;SDS011;4594;50.994;7.126;2023-02-03T17:28:13;7.97;;;3.30;;
9117;SDS011;4594;50.994;7.126;2023-02-03T17:30:40;7.13;;;3.47;;
9117;SDS011;4594;50.994;7.126;2023-02-03T17:33:06;6.83;;;2.97;;
9117;SDS011;4594;50.994;7.126;2023-02-03T17:35:36;10.13;;;3.03;;
9117;SDS011;4594;50.994;7.126;2023-02-03T17:38:10;8.97;;;3.40;;
9117;SDS011;4594;50.994;7.126;2023-02-03T17:40:38;7.17;;;3.43;;
9117;SDS011;4594;50.994;7.126;2023-02-03T17:43:06;4.33;;;3.10;;
9117;SDS011;4594;50.994;7.126;2023-02-03T17:45:32;7.30;;;3.33;;
9117;SDS011;4594;50.994;7.126;2023-02-03T17:48:03;9.43;;;3.83;;
9117;SDS011;4594;50.994;7.126;2023-02-03T17:50:29;10.17;;;3.73;;
9117;SDS011;4594;50.994;7.126;2023-02-03T17:52:55;8.63;;;4.27;;
9117;SDS011;4594;50.994;7.126;2023-02-03T17:55:20;14.57;;;5.40;;
9117;SDS011;4594;50.994;7.126;2023-02-03T17:57:46;10.87;;;4.57;;
9117;SDS011;4594;50.994;7.126;2023-02-03T18:00:12;10.53;;;4.43;;
9117;SDS011;4594;50.994;7.126;2023-02-03T18:02:38;8.73;;;3.80;;
9117;SDS011;4594;50.994;7.126;2023-02-03T18:05:04;13.87;;;4.27;;
9117;SDS011;4594;50.994;7.126;2023-02-03T18:07:30;5.20;;;3.83;;
9117;SDS011;4594;50.994;7.126;2023-02-03T18:09:56;6.50;;;3.63;;
9117;SDS011;4594;50.994;7.126;2023-02-03T18:12:21;8.93;;;3.53;;
9117;SDS011;4594;50.994;7.126;2023-02-03T18:14:48;8.50;;;4.20;;